createdAt,value
2022-11-26T00:00:34.507Z,98.00
2022-11-26T00:01:34.463Z,97.96
2022-11-26T00:02:34.554Z,97.65
2022-11-26T00:03:34.543Z,97.34
2022-11-26T00:04:34.613Z,97.03
2022-11-26T00:05:34.426Z,97.18
2022-11-26T00:06:34.432Z,97.39
2022-11-26T00:07:34.456Z,97.60
2022-11-26T00:08:34.383Z,97.65
2022-11-26T00:09:34.383Z,97.65
2022-11-26T00:10:34.364Z,97.65
2022-11-26T00:11:34.351Z,97.55
2022-11-26T00:12:34.354Z,97.55
2022-11-26T00:13:34.333Z,97.09
2022-11-26T00:14:34.329Z,96.52
2022-11-26T00:15:34.302Z,96.62
2022-11-26T00:16:34.351Z,97.44
2022-11-26T00:17:34.341Z,97.09
2022-11-26T00:18:34.273Z,96.78
2022-11-26T00:19:34.254Z,96.78
2022-11-26T00:20:34.259Z,96.99
2022-11-26T00:21:34.270Z,96.99
2022-11-26T00:22:34.232Z,97.09
2022-11-26T00:23:34.241Z,96.89
2022-11-26T00:24:34.211Z,96.99
2022-11-26T00:25:34.192Z,96.89
2022-11-26T00:26:34.182Z,96.99
2022-11-26T00:27:34.166Z,97.40
2022-11-26T00:28:34.158Z,96.99
2022-11-26T00:29:34.162Z,97.09
2022-11-26T00:30:34.258Z,97.19
2022-11-26T00:31:34.343Z,97.40
2022-11-26T00:32:34.112Z,97.66
2022-11-26T00:33:34.093Z,97.77
2022-11-26T00:34:34.089Z,98.07
2022-11-26T00:35:34.092Z,97.77
2022-11-26T00:36:34.072Z,97.77
2022-11-26T00:37:34.052Z,97.56
2022-11-26T00:38:34.052Z,97.87
2022-11-26T00:39:34.042Z,97.77
2022-11-26T00:40:34.036Z,97.77
2022-11-26T00:41:34.035Z,97.92
2022-11-26T00:42:33.992Z,97.72
2022-11-26T00:43:33.979Z,97.72
2022-11-26T00:44:33.982Z,97.62
2022-11-26T00:45:34.014Z,97.10
2022-11-26T00:46:34.010Z,97.41
2022-11-26T00:47:33.932Z,97.52
2022-11-26T00:48:33.922Z,97.31
2022-11-26T00:49:33.922Z,96.44
2022-11-26T00:50:33.911Z,95.83
2022-11-26T00:51:33.902Z,95.21
2022-11-26T00:52:33.914Z,94.08
2022-11-26T00:53:33.877Z,93.57
2022-11-26T00:54:33.859Z,93.36
2022-11-26T00:55:33.842Z,93.20
2022-11-26T00:56:37.748Z,93.10
2022-11-26T00:57:33.840Z,92.99
2022-11-26T00:58:33.847Z,92.99
2022-11-26T00:59:33.801Z,93.20
2022-11-26T01:00:33.802Z,93.51
2022-11-26T01:01:33.832Z,93.55
2022-11-26T01:02:33.809Z,94.37
2022-11-26T01:03:33.761Z,94.64
2022-11-26T01:04:33.778Z,94.64
2022-11-26T01:05:33.869Z,95.25
2022-11-26T01:06:33.730Z,94.95
2022-11-26T01:07:33.781Z,95.15
2022-11-26T01:08:33.696Z,94.95
2022-11-26T01:09:33.730Z,94.99
2022-11-26T01:10:33.690Z,94.99
2022-11-26T01:11:33.661Z,95.20
2022-11-26T01:12:33.664Z,95.20
2022-11-26T01:13:33.651Z,95.20
2022-11-26T01:14:33.631Z,95.50
2022-11-26T01:15:33.715Z,95.30
2022-11-26T01:16:34.366Z,95.20
2022-11-26T01:17:33.589Z,94.99
2022-11-26T01:18:33.593Z,94.68
2022-11-26T01:19:33.573Z,94.37
2022-11-26T01:20:33.588Z,93.90
2022-11-26T01:21:33.678Z,93.59
2022-11-26T01:22:33.541Z,93.54
2022-11-26T01:23:33.526Z,93.74
2022-11-26T01:24:33.524Z,93.43
2022-11-26T01:25:33.501Z,93.33
2022-11-26T01:26:33.496Z,93.54
2022-11-26T01:27:33.516Z,94.77
2022-11-26T01:28:33.471Z,95.18
2022-11-26T01:29:33.524Z,94.87
2022-11-26T01:30:33.440Z,95.28
2022-11-26T01:31:33.467Z,95.28
2022-11-26T01:32:33.420Z,95.39
2022-11-26T01:33:33.430Z,95.28
2022-11-26T01:34:33.401Z,95.49
2022-11-26T01:35:33.393Z,96.21
2022-11-26T01:36:33.370Z,96.72
2022-11-26T01:37:33.371Z,96.93
2022-11-26T01:38:33.370Z,96.83
2022-11-26T01:39:33.353Z,96.93
2022-11-26T01:40:33.329Z,96.52
2022-11-26T01:41:33.328Z,97.03
2022-11-26T01:42:33.375Z,96.00
2022-11-26T01:43:33.299Z,95.59
2022-11-26T01:44:33.322Z,95.90
2022-11-26T01:45:33.358Z,96.62
2022-11-26T01:46:33.262Z,97.03
2022-11-26T01:47:33.242Z,96.72
2022-11-26T01:48:33.248Z,97.14
2022-11-26T01:49:33.219Z,97.24
2022-11-26T01:50:33.272Z,97.24
2022-11-26T01:51:33.199Z,96.89
2022-11-26T01:52:33.192Z,97.03
2022-11-26T01:53:33.178Z,98.06
2022-11-26T01:54:33.181Z,98.47
2022-11-26T01:55:33.152Z,98.47
2022-11-26T01:56:33.180Z,98.12
2022-11-26T01:57:33.137Z,97.50
2022-11-26T01:58:36.911Z,97.50
2022-11-26T01:59:34.128Z,97.30
2022-11-26T02:00:33.143Z,96.89
2022-11-26T02:01:33.153Z,97.34
2022-11-26T02:02:33.143Z,97.03
2022-11-26T02:03:33.078Z,97.03
2022-11-26T02:04:33.057Z,97.03
2022-11-26T02:05:33.040Z,97.34
2022-11-26T02:06:33.040Z,96.93
2022-11-26T02:07:33.041Z,96.31
2022-11-26T02:08:33.110Z,97.28
2022-11-26T02:09:32.998Z,96.97
2022-11-26T02:10:32.997Z,97.49
2022-11-26T02:11:32.967Z,97.28
2022-11-26T02:12:32.959Z,96.56
2022-11-26T02:13:32.949Z,96.67
2022-11-26T02:14:32.980Z,96.46
2022-11-26T02:15:32.928Z,97.49
2022-11-26T02:16:32.964Z,97.39
2022-11-26T02:17:32.916Z,97.60
2022-11-26T02:18:32.908Z,97.80
2022-11-26T02:19:32.880Z,97.86
2022-11-26T02:20:32.889Z,97.55
2022-11-26T02:21:32.869Z,97.03
2022-11-26T02:22:32.851Z,96.62
2022-11-26T02:23:32.839Z,96.72
2022-11-26T02:24:32.827Z,96.93
2022-11-26T02:25:32.828Z,97.34
2022-11-26T02:26:32.835Z,96.52
2022-11-26T02:27:32.797Z,95.70
2022-11-26T02:28:32.777Z,96.42
2022-11-26T02:29:32.769Z,96.52
2022-11-26T02:30:32.765Z,96.72
2022-11-26T02:31:32.799Z,96.21
2022-11-26T02:32:32.796Z,95.59
2022-11-26T02:33:32.718Z,95.80
2022-11-26T02:34:37.188Z,96.00
2022-11-26T02:35:32.708Z,96.42
2022-11-26T02:36:32.690Z,97.14
2022-11-26T02:37:32.681Z,97.55
2022-11-26T02:38:32.740Z,96.42
2022-11-26T02:39:32.675Z,96.83
2022-11-26T02:40:32.655Z,97.03
2022-11-26T02:41:32.643Z,97.34
2022-11-26T02:42:32.626Z,96.93
2022-11-26T02:43:32.619Z,96.62
2022-11-26T02:44:32.634Z,95.70
2022-11-26T02:45:32.639Z,94.26
2022-11-26T02:46:32.579Z,94.67
2022-11-26T02:47:32.568Z,95.39
2022-11-26T02:48:32.557Z,94.46
2022-11-26T02:49:32.546Z,94.46
2022-11-26T02:50:32.559Z,93.58
2022-11-26T02:51:34.948Z,95.33
2022-11-26T02:52:32.516Z,96.15
2022-11-26T02:53:32.500Z,96.15
2022-11-26T02:54:32.486Z,96.36
2022-11-26T02:55:32.500Z,96.46
2022-11-26T02:56:32.510Z,97.08
2022-11-26T02:57:32.467Z,97.18
2022-11-26T02:58:32.446Z,97.96
2022-11-26T02:59:32.438Z,98.68
2022-11-26T03:00:32.424Z,98.43
2022-11-26T03:01:32.430Z,97.30
2022-11-26T03:02:32.424Z,97.19
2022-11-26T03:03:32.458Z,97.19
2022-11-26T03:04:32.372Z,96.89
2022-11-26T03:05:32.365Z,96.89
2022-11-26T03:06:32.359Z,96.02
2022-11-26T03:07:32.457Z,95.96
2022-11-26T03:08:32.356Z,95.24
2022-11-26T03:09:32.320Z,95.55
2022-11-26T03:10:32.309Z,95.20
2022-11-26T03:11:32.341Z,95.03
2022-11-26T03:12:32.286Z,95.45
2022-11-26T03:13:32.266Z,95.75
2022-11-26T03:14:32.278Z,95.03
2022-11-26T03:15:32.246Z,94.93
2022-11-26T03:16:32.288Z,94.62
2022-11-26T03:17:32.234Z,93.96
2022-11-26T03:18:32.224Z,93.18
2022-11-26T03:19:32.203Z,92.77
2022-11-26T03:20:32.214Z,92.36
2022-11-26T03:21:32.185Z,93.29
2022-11-26T03:22:32.167Z,94.26
2022-11-26T03:23:32.169Z,95.08
2022-11-26T03:24:32.138Z,94.98
2022-11-26T03:25:32.134Z,94.77
2022-11-26T03:26:32.148Z,95.18
2022-11-26T03:27:32.113Z,94.56
2022-11-26T03:28:32.097Z,93.84
2022-11-26T03:29:32.098Z,94.05
2022-11-26T03:30:32.079Z,95.28
2022-11-26T03:31:32.101Z,95.49
2022-11-26T03:32:32.099Z,95.18
2022-11-26T03:33:32.057Z,94.42
2022-11-26T03:34:32.032Z,93.90
2022-11-26T03:35:32.025Z,93.33
2022-11-26T03:36:32.006Z,95.08
2022-11-26T03:37:32.012Z,95.70
2022-11-26T03:38:32.005Z,95.08
2022-11-26T03:39:31.974Z,94.98
2022-11-26T03:40:31.962Z,94.36
2022-11-26T03:41:31.955Z,94.87
2022-11-26T03:42:31.963Z,94.36
2022-11-26T03:43:31.936Z,96.11
2022-11-26T03:44:31.952Z,95.90
2022-11-26T03:45:31.929Z,95.08
2022-11-26T03:46:31.902Z,93.64
2022-11-26T03:47:31.880Z,93.48
2022-11-26T03:48:31.876Z,93.68
2022-11-26T03:49:31.863Z,93.79
2022-11-26T03:50:31.873Z,93.06
2022-11-26T03:51:31.843Z,92.80
2022-11-26T03:52:31.828Z,92.69
2022-11-26T03:53:31.813Z,92.80
2022-11-26T03:54:31.802Z,92.63
2022-11-26T03:55:31.796Z,92.63
2022-11-26T03:56:31.802Z,92.57
2022-11-26T03:57:31.762Z,92.78
2022-11-26T03:58:31.766Z,92.27
2022-11-26T03:59:31.741Z,93.13
2022-11-26T04:00:31.732Z,93.65
2022-11-26T04:01:31.844Z,93.13
2022-11-26T04:02:31.754Z,93.44
2022-11-26T04:03:31.780Z,93.49
2022-11-26T04:04:31.691Z,94.31
2022-11-26T04:05:31.682Z,94.31
2022-11-26T04:06:31.670Z,94.21
2022-11-26T04:07:31.762Z,94.00
2022-11-26T04:08:31.663Z,93.07
2022-11-26T04:09:31.636Z,92.19
2022-11-26T04:10:31.623Z,92.29
2022-11-26T04:11:31.635Z,93.47
2022-11-26T04:12:31.613Z,95.22
2022-11-26T04:13:31.602Z,96.67
2022-11-26T04:14:31.602Z,96.83
2022-11-26T04:15:31.593Z,96.62
2022-11-26T04:16:31.614Z,96.21
2022-11-26T04:17:31.551Z,96.77
2022-11-26T04:18:31.557Z,97.81
2022-11-26T04:19:31.532Z,97.55
2022-11-26T04:20:31.539Z,97.25
2022-11-26T04:21:31.512Z,96.21
2022-11-26T04:22:31.497Z,95.49
2022-11-26T04:23:31.489Z,94.67
2022-11-26T04:24:31.479Z,94.50
2022-11-26T04:25:31.471Z,93.98
2022-11-26T04:26:31.474Z,93.88
2022-11-26T04:27:31.442Z,93.68
2022-11-26T04:28:31.424Z,94.13
2022-11-26T04:29:31.428Z,94.65
2022-11-26T04:30:31.400Z,94.96
2022-11-26T04:31:31.466Z,95.62
2022-11-26T04:32:31.409Z,96.45
2022-11-26T04:33:31.371Z,97.38
2022-11-26T04:34:31.378Z,98.21
2022-11-26T04:35:31.350Z,97.79
2022-11-26T04:36:31.343Z,97.69
2022-11-26T04:37:31.340Z,98.31
2022-11-26T04:38:31.339Z,98.21
2022-11-26T04:39:31.302Z,98.41
2022-11-26T04:40:31.290Z,97.85
2022-11-26T04:41:31.285Z,97.75
2022-11-26T04:42:31.270Z,97.13
2022-11-26T04:43:31.270Z,97.02
2022-11-26T04:44:31.308Z,96.41
2022-11-26T04:45:31.298Z,95.78
2022-11-26T04:46:31.227Z,95.48
2022-11-26T04:47:31.220Z,95.52
2022-11-26T04:48:31.204Z,96.86
2022-11-26T04:49:31.198Z,97.69
2022-11-26T04:50:31.213Z,98.62
2022-11-26T04:51:31.178Z,98.21
2022-11-26T04:52:31.162Z,98.00
2022-11-26T04:53:31.150Z,98.00
2022-11-26T04:54:31.139Z,98.31
2022-11-26T04:55:31.140Z,98.10
2022-11-26T04:56:31.711Z,97.79
2022-11-26T04:57:31.116Z,97.63
2022-11-26T04:58:31.089Z,97.17
2022-11-26T04:59:31.096Z,96.80
2022-11-26T05:00:31.073Z,96.49
2022-11-26T05:01:31.130Z,95.87
2022-11-26T05:02:31.111Z,95.36
2022-11-26T05:03:31.050Z,94.94
2022-11-26T05:04:31.035Z,95.19
2022-11-26T05:05:31.028Z,95.61
2022-11-26T05:06:31.013Z,95.71
2022-11-26T05:07:31.054Z,96.02
2022-11-26T05:08:31.016Z,96.12
2022-11-26T05:09:30.979Z,96.33
2022-11-26T05:10:30.988Z,96.33
2022-11-26T05:11:30.952Z,96.95
2022-11-26T05:12:30.948Z,97.16
2022-11-26T05:13:30.966Z,97.57
2022-11-26T05:14:30.917Z,98.09
2022-11-26T05:15:30.916Z,98.30
2022-11-26T05:16:30.944Z,98.40
2022-11-26T05:17:30.892Z,99.13
2022-11-26T05:18:30.879Z,99.64
2022-11-26T05:19:30.889Z,99.99
2022-11-26T05:20:30.861Z,99.99
2022-11-26T05:21:30.851Z,99.99
2022-11-26T05:22:30.825Z,99.85
2022-11-26T05:23:30.826Z,99.64
2022-11-26T05:24:30.845Z,99.54
2022-11-26T05:25:30.806Z,99.54
2022-11-26T05:26:30.775Z,99.54
2022-11-26T05:27:30.778Z,99.43
2022-11-26T05:28:30.758Z,99.43
2022-11-26T05:29:30.755Z,99.13
2022-11-26T05:30:30.755Z,99.13
2022-11-26T05:31:30.778Z,99.54
2022-11-26T05:32:30.717Z,99.79
2022-11-26T05:33:30.703Z,99.90
2022-11-26T05:34:31.417Z,99.85
2022-11-26T05:35:30.718Z,99.90
2022-11-26T05:36:30.665Z,99.69
2022-11-26T05:37:32.326Z,99.99
2022-11-26T05:38:30.647Z,99.99
2022-11-26T05:39:30.684Z,99.99
2022-11-26T05:40:30.634Z,99.99
2022-11-26T05:41:30.634Z,99.99
2022-11-26T05:42:30.607Z,99.99
2022-11-26T05:43:30.596Z,99.99
2022-11-26T05:44:30.585Z,99.99
2022-11-26T05:45:30.627Z,99.99
2022-11-26T05:46:30.583Z,99.99
2022-11-26T05:47:30.554Z,99.99
2022-11-26T05:48:30.535Z,99.99
2022-11-26T05:49:30.533Z,99.99
2022-11-26T05:50:30.517Z,99.99
2022-11-26T05:51:30.506Z,99.99
2022-11-26T05:52:30.514Z,99.99
2022-11-26T05:53:30.492Z,99.99
2022-11-26T05:54:30.479Z,99.99
2022-11-26T05:55:30.465Z,99.99
2022-11-26T05:56:30.524Z,99.69
2022-11-26T05:57:30.457Z,99.38
2022-11-26T05:58:30.422Z,99.17
2022-11-26T05:59:30.414Z,99.58
2022-11-26T06:00:30.410Z,99.43
2022-11-26T06:01:30.394Z,99.11
2022-11-26T06:02:30.545Z,98.70
2022-11-26T06:03:30.536Z,98.28
2022-11-26T06:04:30.364Z,97.83
2022-11-26T06:05:30.354Z,97.83
2022-11-26T06:06:30.331Z,97.31
2022-11-26T06:07:30.368Z,96.94
2022-11-26T06:08:30.331Z,96.94
2022-11-26T06:09:30.312Z,97.04
2022-11-26T06:10:30.301Z,97.14
2022-11-26T06:11:30.282Z,97.45
2022-11-26T06:12:30.271Z,98.18
2022-11-26T06:13:30.323Z,97.66
2022-11-26T06:14:30.261Z,97.87
2022-11-26T06:15:30.242Z,98.43
2022-11-26T06:16:30.311Z,98.74
2022-11-26T06:17:30.215Z,98.95
2022-11-26T06:18:30.241Z,99.05
2022-11-26T06:19:30.275Z,98.43
2022-11-26T06:20:30.174Z,97.91
2022-11-26T06:21:30.184Z,97.81
2022-11-26T06:22:30.181Z,97.55
2022-11-26T06:23:30.140Z,97.13
2022-11-26T06:24:30.233Z,97.44
2022-11-26T06:25:30.141Z,98.00
2022-11-26T06:26:30.120Z,98.94
2022-11-26T06:27:30.100Z,99.66
2022-11-26T06:28:30.094Z,98.83
2022-11-26T06:29:30.080Z,98.94
2022-11-26T06:30:30.091Z,98.94
2022-11-26T06:31:30.100Z,98.83
2022-11-26T06:32:30.061Z,98.83
2022-11-26T06:33:30.030Z,98.73
2022-11-26T06:34:30.014Z,98.52
2022-11-26T06:35:30.025Z,97.80
2022-11-26T06:36:30.039Z,98.00
2022-11-26T06:37:29.989Z,98.42
2022-11-26T06:38:29.990Z,97.80
2022-11-26T06:39:29.970Z,98.00
2022-11-26T06:40:29.949Z,97.59
2022-11-26T06:41:29.962Z,96.86
2022-11-26T06:42:29.933Z,96.66
2022-11-26T06:43:29.921Z,96.66
2022-11-26T06:44:29.917Z,96.24
2022-11-26T06:45:29.924Z,95.41
2022-11-26T06:46:29.899Z,95.36
2022-11-26T06:47:29.899Z,95.62
2022-11-26T06:48:29.898Z,95.15
2022-11-26T06:49:29.858Z,95.25
2022-11-26T06:50:29.847Z,95.87
2022-11-26T06:51:29.833Z,95.98
2022-11-26T06:52:29.838Z,95.87
2022-11-26T06:53:29.830Z,96.08
2022-11-26T06:54:29.901Z,95.67
2022-11-26T06:55:29.793Z,96.08
2022-11-26T06:56:29.778Z,96.60
2022-11-26T06:57:29.768Z,96.50
2022-11-26T06:58:29.780Z,96.60
2022-11-26T06:59:29.738Z,96.39
2022-11-26T07:00:29.775Z,96.60
2022-11-26T07:01:29.772Z,96.55
2022-11-26T07:02:29.800Z,96.76
2022-11-26T07:03:33.422Z,96.76
2022-11-26T07:04:29.686Z,97.49
2022-11-26T07:05:29.688Z,98.00
2022-11-26T07:06:29.676Z,97.80
2022-11-26T07:07:29.720Z,98.11
2022-11-26T07:08:29.646Z,98.52
2022-11-26T07:09:29.655Z,98.52
2022-11-26T07:10:29.643Z,98.42
2022-11-26T07:11:29.628Z,98.94
2022-11-26T07:12:29.604Z,98.52
2022-11-26T07:13:29.585Z,98.52
2022-11-26T07:14:29.574Z,98.32
2022-11-26T07:15:29.583Z,98.11
2022-11-26T07:16:29.577Z,98.00
2022-11-26T07:17:29.548Z,99.35
2022-11-26T07:18:29.527Z,98.94
2022-11-26T07:19:29.517Z,98.48
2022-11-26T07:20:29.561Z,97.65
2022-11-26T07:21:29.518Z,97.24
2022-11-26T07:22:29.485Z,96.92
2022-11-26T07:23:29.473Z,96.61
2022-11-26T07:24:29.465Z,96.92
2022-11-26T07:25:29.452Z,96.92
2022-11-26T07:26:29.462Z,97.44
2022-11-26T07:27:29.423Z,96.82
2022-11-26T07:28:29.419Z,96.82
2022-11-26T07:29:29.416Z,96.82
2022-11-26T07:30:29.473Z,96.51
2022-11-26T07:31:29.434Z,96.61
2022-11-26T07:32:29.394Z,96.30
2022-11-26T07:33:29.367Z,96.41
2022-11-26T07:34:29.363Z,97.44
2022-11-26T07:35:29.344Z,97.55
2022-11-26T07:36:29.345Z,97.55
2022-11-26T07:37:29.314Z,97.03
2022-11-26T07:38:29.324Z,96.92
2022-11-26T07:39:29.297Z,97.19
2022-11-26T07:40:29.292Z,96.57
2022-11-26T07:41:29.278Z,96.67
2022-11-26T07:42:29.264Z,96.57
2022-11-26T07:43:29.274Z,96.36
2022-11-26T07:44:29.235Z,96.31
2022-11-26T07:45:29.251Z,96.01
2022-11-26T07:46:29.289Z,96.31
2022-11-26T07:47:29.211Z,96.21
2022-11-26T07:48:29.194Z,96.42
2022-11-26T07:49:29.204Z,96.62
2022-11-26T07:50:29.176Z,96.83
2022-11-26T07:51:29.164Z,96.01
2022-11-26T07:52:29.155Z,96.17
2022-11-26T07:53:29.147Z,95.96
2022-11-26T07:54:29.139Z,96.27
2022-11-26T07:55:29.133Z,96.27
2022-11-26T07:56:29.115Z,96.37
2022-11-26T07:57:29.106Z,96.06
2022-11-26T07:58:29.097Z,96.37
2022-11-26T07:59:29.084Z,96.27
2022-11-26T08:00:29.070Z,95.75
2022-11-26T08:01:29.106Z,95.29
2022-11-26T08:02:29.081Z,95.61
2022-11-26T08:03:29.025Z,96.44
2022-11-26T08:04:29.019Z,95.61
2022-11-26T08:05:29.021Z,95.81
2022-11-26T08:06:29.011Z,96.23
2022-11-26T08:07:29.426Z,95.67
2022-11-26T08:08:28.982Z,95.46
2022-11-26T08:09:28.961Z,95.46
2022-11-26T08:10:28.990Z,95.46
2022-11-26T08:11:28.956Z,95.77
2022-11-26T08:12:28.950Z,95.46
2022-11-26T08:13:28.935Z,95.25
2022-11-26T08:14:28.909Z,95.15
2022-11-26T08:15:28.891Z,94.94
2022-11-26T08:16:29.448Z,94.63
2022-11-26T08:17:29.000Z,95.04
2022-11-26T08:18:28.950Z,95.10
2022-11-26T08:19:28.859Z,94.90
2022-11-26T08:20:29.368Z,94.59
2022-11-26T08:21:28.847Z,95.21
2022-11-26T08:22:28.817Z,94.84
2022-11-26T08:23:28.811Z,95.42
2022-11-26T08:24:28.860Z,95.21
2022-11-26T08:25:28.790Z,94.90
2022-11-26T08:26:34.657Z,94.90
2022-11-26T08:27:29.769Z,94.96
2022-11-26T08:28:28.763Z,94.85
2022-11-26T08:29:28.750Z,95.06
2022-11-26T08:30:28.786Z,94.75
2022-11-26T08:31:28.857Z,94.65
2022-11-26T08:32:28.710Z,94.44
2022-11-26T08:33:28.715Z,94.65
2022-11-26T08:34:28.710Z,94.44
2022-11-26T08:35:51.283Z,94.34
2022-11-26T08:36:29.702Z,93.51
2022-11-26T08:37:28.662Z,93.41
2022-11-26T08:38:28.652Z,93.41
2022-11-26T08:39:28.641Z,93.41
2022-11-26T08:40:28.631Z,93.93
2022-11-26T08:41:28.628Z,94.23
2022-11-26T08:42:28.601Z,94.44
2022-11-26T08:43:51.389Z,94.69
2022-11-26T08:44:29.579Z,95.06
2022-11-26T08:45:28.578Z,94.96
2022-11-26T08:46:28.637Z,94.65
2022-11-26T08:47:28.588Z,94.71
2022-11-26T08:48:31.782Z,94.13
2022-11-26T08:49:28.527Z,93.72
2022-11-26T08:50:28.538Z,94.65
2022-11-26T08:51:28.522Z,94.28
2022-11-26T08:52:28.518Z,94.69
2022-11-26T08:53:28.738Z,94.69
2022-11-26T08:54:28.574Z,94.69
2022-11-26T08:55:53.356Z,94.94
2022-11-26T08:56:29.689Z,95.46
2022-11-26T08:57:28.437Z,95.56
2022-11-26T08:58:28.500Z,95.67
2022-11-26T08:59:28.417Z,96.14
2022-11-26T09:00:28.407Z,96.34
2022-11-26T09:01:28.439Z,96.51
2022-11-26T09:02:28.394Z,95.52
2022-11-26T09:03:28.405Z,95.42
2022-11-26T09:04:28.386Z,96.86
2022-11-26T09:05:28.356Z,95.73
2022-11-26T09:06:28.345Z,95.94
2022-11-26T09:07:28.386Z,95.62
2022-11-26T09:08:28.336Z,96.14
2022-11-26T09:09:28.307Z,96.61
2022-11-26T09:10:28.321Z,96.72
2022-11-26T09:11:28.284Z,96.30
2022-11-26T09:12:28.285Z,96.47
2022-11-26T09:13:28.268Z,96.20
2022-11-26T09:14:28.343Z,96.72
2022-11-26T09:15:28.272Z,97.54
2022-11-26T09:16:28.272Z,97.59
2022-11-26T09:17:28.216Z,98.21
2022-11-26T09:18:28.215Z,97.85
2022-11-26T09:19:28.206Z,97.33
2022-11-26T09:20:28.189Z,96.92
2022-11-26T09:21:28.185Z,96.77
2022-11-26T09:22:28.166Z,96.67
2022-11-26T09:23:28.157Z,96.52
2022-11-26T09:24:28.289Z,96.62
2022-11-26T09:25:28.135Z,96.21
2022-11-26T09:26:28.143Z,96.17
2022-11-26T09:27:28.106Z,95.65
2022-11-26T09:28:28.111Z,95.45
2022-11-26T09:29:28.095Z,95.34
2022-11-26T09:30:28.076Z,95.30
2022-11-26T09:31:28.205Z,94.99
2022-11-26T09:32:32.667Z,94.99
2022-11-26T09:33:29.045Z,94.57
2022-11-26T09:34:28.048Z,93.28
2022-11-26T09:35:28.024Z,93.84
2022-11-26T09:36:28.031Z,93.84
2022-11-26T09:37:28.284Z,94.42
2022-11-26T09:38:28.017Z,94.93
2022-11-26T09:39:27.984Z,95.24
2022-11-26T09:40:27.963Z,94.78
2022-11-26T09:41:27.964Z,94.78
2022-11-26T09:42:27.945Z,94.27
2022-11-26T09:43:27.953Z,94.47
2022-11-26T09:44:27.924Z,93.71
2022-11-26T09:45:27.963Z,94.23
2022-11-26T09:46:33.621Z,94.23
2022-11-26T09:47:28.891Z,93.66
2022-11-26T09:48:27.928Z,94.18
2022-11-26T09:49:27.884Z,93.35
2022-11-26T09:50:27.857Z,92.84
2022-11-26T09:51:27.834Z,93.15
2022-11-26T09:52:27.833Z,93.35
2022-11-26T09:53:27.832Z,92.90
2022-11-26T09:54:27.804Z,93.11
2022-11-26T09:55:27.825Z,91.83
2022-11-26T09:56:28.004Z,90.39
2022-11-26T09:57:28.104Z,91.21
2022-11-26T09:58:28.538Z,91.05
2022-11-26T09:59:28.451Z,91.56
2022-11-26T10:00:28.643Z,93.05
2022-11-26T10:01:27.759Z,92.69
2022-11-26T10:02:27.817Z,93.21
2022-11-26T10:03:27.764Z,93.58
2022-11-26T10:04:27.692Z,93.27
2022-11-26T10:05:27.720Z,93.58
2022-11-26T10:06:27.773Z,91.77
2022-11-26T10:07:27.710Z,92.43
2022-11-26T10:08:27.643Z,92.94
2022-11-26T10:09:27.634Z,93.15
2022-11-26T10:10:27.803Z,93.25
2022-11-26T10:11:28.002Z,94.08
2022-11-26T10:12:27.654Z,94.59
2022-11-26T10:13:27.585Z,93.98
2022-11-26T10:14:27.823Z,94.38
2022-11-26T10:15:29.573Z,93.91
2022-11-26T10:16:27.610Z,94.02
2022-11-26T10:17:27.543Z,94.70
2022-11-26T10:18:27.575Z,94.49
2022-11-26T10:19:27.666Z,95.10
2022-11-26T10:20:27.523Z,95.10
2022-11-26T10:21:57.049Z,95.06
2022-11-26T10:22:28.484Z,94.55
2022-11-26T10:23:27.490Z,94.34
2022-11-26T10:24:27.525Z,95.64
2022-11-26T10:25:27.592Z,95.33
2022-11-26T10:26:27.453Z,95.12
2022-11-26T10:27:27.434Z,94.30
2022-11-26T10:28:27.722Z,94.98
2022-11-26T10:29:27.422Z,94.56
2022-11-26T10:30:27.426Z,93.95
2022-11-26T10:31:27.452Z,93.99
2022-11-26T10:32:27.384Z,93.88
2022-11-26T10:33:28.133Z,93.58
2022-11-26T10:34:29.309Z,93.16
2022-11-26T10:35:27.572Z,94.45
2022-11-26T10:36:27.374Z,94.70
2022-11-26T10:37:27.332Z,95.93
2022-11-26T10:38:27.309Z,96.45
2022-11-26T10:39:27.302Z,96.09
2022-11-26T10:40:27.286Z,95.78
2022-11-26T10:41:27.401Z,95.68
2022-11-26T10:42:27.275Z,95.06
2022-11-26T10:43:27.274Z,95.53
2022-11-26T10:44:27.329Z,95.53
2022-11-26T10:45:27.331Z,95.84
2022-11-26T10:46:27.362Z,96.25
2022-11-26T10:47:27.439Z,95.49
2022-11-26T10:48:27.198Z,95.90
2022-11-26T10:49:27.467Z,96.31
2022-11-26T10:50:46.567Z,95.75
2022-11-26T10:51:28.505Z,95.28
2022-11-26T10:52:27.289Z,95.28
2022-11-26T10:53:27.281Z,95.18
2022-11-26T10:54:27.141Z,94.67
2022-11-26T10:55:27.133Z,95.33
2022-11-26T10:56:27.208Z,95.58
2022-11-26T10:57:27.101Z,96.25
2022-11-26T10:58:27.101Z,96.88
2022-11-26T10:59:27.233Z,96.71
2022-11-26T11:00:27.107Z,96.86
2022-11-26T11:01:27.089Z,98.25
2022-11-26T11:02:27.155Z,98.25
2022-11-26T11:03:44.900Z,97.69
2022-11-26T11:04:28.024Z,98.52
2022-11-26T11:05:27.278Z,98.52
2022-11-26T11:06:27.024Z,97.34
2022-11-26T11:07:27.357Z,97.55
2022-11-26T11:08:26.980Z,96.89
2022-11-26T11:09:27.093Z,97.40
2022-11-26T11:10:26.962Z,97.36
2022-11-26T11:11:26.940Z,95.92
2022-11-26T11:12:26.934Z,95.71
2022-11-26T11:13:26.918Z,96.12
2022-11-26T11:14:26.913Z,95.71
2022-11-26T11:15:27.042Z,95.67
2022-11-26T11:16:26.975Z,94.95
2022-11-26T11:17:26.877Z,94.43
2022-11-26T11:18:26.861Z,95.15
2022-11-26T11:19:27.260Z,95.25
2022-11-26T11:20:27.381Z,95.15
2022-11-26T11:21:26.851Z,95.67
2022-11-26T11:22:26.819Z,95.15
2022-11-26T11:23:45.700Z,95.15
2022-11-26T11:24:27.799Z,94.95
2022-11-26T11:25:27.213Z,94.73
2022-11-26T11:26:27.013Z,95.03
2022-11-26T11:27:27.323Z,95.55
2022-11-26T11:28:26.751Z,96.31
2022-11-26T11:29:26.740Z,96.62
2022-11-26T11:30:26.729Z,96.89
2022-11-26T11:31:26.814Z,95.59
2022-11-26T11:32:26.711Z,97.03
2022-11-26T11:33:26.722Z,96.68
2022-11-26T11:34:26.694Z,96.21
2022-11-26T11:35:26.679Z,96.72
2022-11-26T11:36:26.670Z,96.78
2022-11-26T11:37:26.659Z,96.64
2022-11-26T11:38:26.642Z,96.22
2022-11-26T11:39:26.662Z,96.64
2022-11-26T11:40:26.648Z,95.87
2022-11-26T11:41:26.621Z,95.56
2022-11-26T11:42:26.589Z,95.05
2022-11-26T11:43:26.594Z,95.25
2022-11-26T11:44:26.590Z,95.46
2022-11-26T11:45:26.648Z,95.15
2022-11-26T11:46:26.680Z,95.36
2022-11-26T11:47:26.650Z,95.21
2022-11-26T11:48:26.529Z,94.59
2022-11-26T11:49:26.524Z,94.23
2022-11-26T11:50:26.508Z,94.33
2022-11-26T11:51:26.512Z,93.92
2022-11-26T11:52:26.487Z,93.86
2022-11-26T11:53:26.469Z,94.37
2022-11-26T11:54:26.460Z,94.37
2022-11-26T11:55:26.459Z,95.24
2022-11-26T11:56:26.499Z,95.34
2022-11-26T11:57:26.428Z,96.78
2022-11-26T11:58:26.411Z,96.58
2022-11-26T11:59:26.409Z,96.27
2022-11-26T12:00:26.396Z,96.53
2022-11-26T12:01:26.390Z,96.22
2022-11-26T12:02:26.411Z,96.64
2022-11-26T12:03:26.368Z,96.53
2022-11-26T12:04:26.423Z,96.64
2022-11-26T12:05:26.632Z,96.18
2022-11-26T12:06:26.330Z,96.08
2022-11-26T12:07:26.476Z,95.46
2022-11-26T12:08:26.312Z,94.95
2022-11-26T12:09:26.289Z,94.80
2022-11-26T12:10:27.883Z,94.70
2022-11-26T12:11:26.287Z,94.70
2022-11-26T12:12:26.263Z,94.59
2022-11-26T12:13:26.270Z,94.70
2022-11-26T12:14:26.241Z,94.39
2022-11-26T12:15:26.230Z,94.08
2022-11-26T12:16:26.251Z,94.23
2022-11-26T12:17:31.773Z,94.84
2022-11-26T12:18:27.247Z,94.74
2022-11-26T12:19:26.201Z,94.33
2022-11-26T12:20:26.168Z,95.25
2022-11-26T12:21:26.170Z,96.28
2022-11-26T12:22:26.165Z,96.59
2022-11-26T12:23:26.150Z,96.08
2022-11-26T12:24:26.157Z,96.18
2022-11-26T12:25:26.120Z,96.08
2022-11-26T12:26:26.109Z,96.18
2022-11-26T12:27:26.855Z,96.08
2022-11-26T12:28:26.099Z,96.39
2022-11-26T12:29:26.087Z,95.83
2022-11-26T12:30:26.082Z,94.90
2022-11-26T12:31:26.100Z,94.74
2022-11-26T12:32:26.037Z,95.56
2022-11-26T12:33:26.029Z,95.56
2022-11-26T12:34:26.017Z,95.97
2022-11-26T12:35:26.012Z,96.33
2022-11-26T12:36:26.022Z,96.08
2022-11-26T12:37:25.998Z,95.77
2022-11-26T12:38:25.969Z,95.87
2022-11-26T12:39:25.968Z,96.18
2022-11-26T12:40:26.710Z,95.92
2022-11-26T12:42:19.453Z,96.22
2022-11-26T12:43:19.406Z,96.33
2022-11-26T12:44:19.389Z,96.53
2022-11-26T12:45:19.379Z,95.61
2022-11-26T12:46:19.419Z,96.02
2022-11-26T12:47:19.379Z,96.12
2022-11-26T12:48:19.347Z,95.40
2022-11-26T12:49:19.329Z,95.92
2022-11-26T12:50:19.753Z,95.71
2022-11-26T12:51:19.310Z,95.71
2022-11-26T12:52:19.297Z,96.12
2022-11-26T12:53:19.317Z,95.97